sensor_id;sensor_type;location;lat;lon;timestamp;P1;durP1;ratioP1;P2;durP2;ratioP2
64826;SDS011;51265;53.972;12.286;2023-03-17T00:01:11;5.40;;;1.50;;
64826;SDS011;51265;53.972;12.286;2023-03-17T00:03:40;4.28;;;1.48;;
64826;SDS011;51265;53.972;12.286;2023-03-17T00:06:13;5.97;;;1.45;;
64826;SDS011;51265;53.972;12.286;2023-03-17T00:08:42;6.88;;;1.30;;
64826;SDS011;51265;53.972;12.286;2023-03-17T00:11:11;4.30;;;1.60;;
64826;SDS011;51265;53.972;12.286;2023-03-17T00:13:39;5.65;;;1.60;;
64826;SDS011;51265;53.972;12.286;2023-03-17T00:16:09;2.53;;;1.50;;
64826;SDS011;51265;53.972;12.286;2023-03-17T00:18:40;3.72;;;1.52;;
64826;SDS011;51265;53.972;12.286;2023-03-17T00:21:09;5.47;;;1.90;;
64826;SDS011;51265;53.972;12.286;2023-03-17T00:23:37;6.85;;;1.75;;
64826;SDS011;51265;53.972;12.286;2023-03-17T00:26:04;4.95;;;2.20;;
64826;SDS011;51265;53.972;12.286;2023-03-17T00:28:30;5.35;;;2.13;;
64826;SDS011;51265;53.972;12.286;2023-03-17T00:30:57;5.90;;;1.70;;
64826;SDS011;51265;53.972;12.286;2023-03-17T00:33:26;5.40;;;1.95;;
64826;SDS011;51265;53.972;12.286;2023-03-17T00:35:54;5.82;;;2.00;;
64826;SDS011;51265;53.972;12.286;2023-03-17T00:38:24;4.82;;;1.85;;
64826;SDS011;51265;53.972;12.286;2023-03-17T00:40:50;4.15;;;1.70;;
64826;SDS011;51265;53.972;12.286;2023-03-17T00:43:16;3.92;;;1.80;;
64826;SDS011;51265;53.972;12.286;2023-03-17T00:45:43;6.50;;;2.17;;
64826;SDS011;51265;53.972;12.286;2023-03-17T00:48:12;6.15;;;2.25;;
64826;SDS011;51265;53.972;12.286;2023-03-17T00:50:42;3.88;;;1.63;;
64826;SDS011;51265;53.972;12.286;2023-03-17T00:53:14;7.78;;;2.03;;
64826;SDS011;51265;53.972;12.286;2023-03-17T00:55:42;5.75;;;2.03;;
64826;SDS011;51265;53.972;12.286;2023-03-17T01:00:58;6.68;;;2.22;;
64826;SDS011;51265;53.972;12.286;2023-03-17T01:03:25;4.85;;;2.03;;
64826;SDS011;51265;53.972;12.286;2023-03-17T01:05:54;4.20;;;1.92;;
64826;SDS011;51265;53.972;12.286;2023-03-17T01:08:25;9.70;;;2.42;;
64826;SDS011;51265;53.972;12.286;2023-03-17T01:10:52;3.80;;;1.85;;
64826;SDS011;51265;53.972;12.286;2023-03-17T01:13:19;4.25;;;1.85;;
64826;SDS011;51265;53.972;12.286;2023-03-17T01:15:46;7.97;;;2.38;;
64826;SDS011;51265;53.972;12.286;2023-03-17T01:18:14;3.60;;;2.08;;
64826;SDS011;51265;53.972;12.286;2023-03-17T01:20:42;7.57;;;2.15;;
64826;SDS011;51265;53.972;12.286;2023-03-17T01:23:09;6.45;;;2.15;;
64826;SDS011;51265;53.972;12.286;2023-03-17T01:25:42;4.57;;;2.17;;
64826;SDS011;51265;53.972;12.286;2023-03-17T01:28:13;5.97;;;2.58;;
64826;SDS011;51265;53.972;12.286;2023-03-17T01:30:41;4.22;;;2.00;;
64826;SDS011;51265;53.972;12.286;2023-03-17T01:33:17;5.82;;;2.15;;
64826;SDS011;51265;53.972;12.286;2023-03-17T01:35:43;5.68;;;2.28;;
64826;SDS011;51265;53.972;12.286;2023-03-17T01:38:10;3.60;;;1.83;;
64826;SDS011;51265;53.972;12.286;2023-03-17T01:40:56;5.45;;;2.53;;
64826;SDS011;51265;53.972;12.286;2023-03-17T01:43:24;9.40;;;2.30;;
64826;SDS011;51265;53.972;12.286;2023-03-17T01:48:47;8.27;;;2.60;;
64826;SDS011;51265;53.972;12.286;2023-03-17T01:51:24;7.47;;;2.22;;
64826;SDS011;51265;53.972;12.286;2023-03-17T01:53:55;4.85;;;2.35;;
64826;SDS011;51265;53.972;12.286;2023-03-17T01:56:21;6.43;;;2.33;;
64826;SDS011;51265;53.972;12.286;2023-03-17T01:58:48;7.90;;;2.25;;
64826;SDS011;51265;53.972;12.286;2023-03-17T02:01:20;6.38;;;2.40;;
64826;SDS011;51265;53.972;12.286;2023-03-17T02:03:50;6.90;;;2.20;;
64826;SDS011;51265;53.972;12.286;2023-03-17T02:06:18;4.95;;;2.20;;
64826;SDS011;51265;53.972;12.286;2023-03-17T02:08:45;4.65;;;2.30;;
64826;SDS011;51265;53.972;12.286;2023-03-17T02:11:13;5.43;;;2.28;;
64826;SDS011;51265;53.972;12.286;2023-03-17T02:13:40;5.95;;;2.20;;
64826;SDS011;51265;53.972;12.286;2023-03-17T02:16:06;4.68;;;2.10;;
64826;SDS011;51265;53.972;12.286;2023-03-17T02:18:42;9.32;;;2.30;;
64826;SDS011;51265;53.972;12.286;2023-03-17T02:21:25;5.13;;;2.08;;
64826;SDS011;51265;53.972;12.286;2023-03-17T02:23:52;6.47;;;2.55;;
64826;SDS011;51265;53.972;12.286;2023-03-17T02:26:20;5.32;;;2.28;;
64826;SDS011;51265;53.972;12.286;2023-03-17T02:28:48;7.90;;;2.40;;
64826;SDS011;51265;53.972;12.286;2023-03-17T02:31:14;6.68;;;2.33;;
64826;SDS011;51265;53.972;12.286;2023-03-17T02:33:42;4.68;;;2.45;;
64826;SDS011;51265;53.972;12.286;2023-03-17T02:36:09;7.10;;;2.42;;
64826;SDS011;51265;53.972;12.286;2023-03-17T02:42:32;6.43;;;2.20;;
64826;SDS011;51265;53.972;12.286;2023-03-17T02:44:59;7.20;;;2.40;;
64826;SDS011;51265;53.972;12.286;2023-03-17T02:47:26;4.78;;;2.80;;
64826;SDS011;51265;53.972;12.286;2023-03-17T02:49:52;8.35;;;2.67;;
64826;SDS011;51265;53.972;12.286;2023-03-17T02:52:19;4.78;;;2.70;;
64826;SDS011;51265;53.972;12.286;2023-03-17T02:54:45;9.10;;;2.33;;
64826;SDS011;51265;53.972;12.286;2023-03-17T02:57:12;7.60;;;2.58;;
64826;SDS011;51265;53.972;12.286;2023-03-17T02:59:38;5.63;;;2.33;;
64826;SDS011;51265;53.972;12.286;2023-03-17T03:02:04;4.70;;;2.42;;
64826;SDS011;51265;53.972;12.286;2023-03-17T03:04:30;8.68;;;2.58;;
64826;SDS011;51265;53.972;12.286;2023-03-17T03:06:57;6.93;;;2.80;;
64826;SDS011;51265;53.972;12.286;2023-03-17T03:09:23;4.57;;;2.20;;
64826;SDS011;51265;53.972;12.286;2023-03-17T03:11:50;6.13;;;2.42;;
64826;SDS011;51265;53.972;12.286;2023-03-17T03:14:17;5.57;;;2.50;;
64826;SDS011;51265;53.972;12.286;2023-03-17T03:16:43;6.72;;;2.42;;
64826;SDS011;51265;53.972;12.286;2023-03-17T03:19:09;5.85;;;2.50;;
64826;SDS011;51265;53.972;12.286;2023-03-17T03:21:36;7.65;;;2.33;;
64826;SDS011;51265;53.972;12.286;2023-03-17T03:24:02;7.43;;;2.60;;
64826;SDS011;51265;53.972;12.286;2023-03-17T03:26:29;7.50;;;2.70;;
64826;SDS011;51265;53.972;12.286;2023-03-17T03:28:56;6.78;;;2.33;;
64826;SDS011;51265;53.972;12.286;2023-03-17T03:31:24;3.50;;;2.35;;
64826;SDS011;51265;53.972;12.286;2023-03-17T03:33:51;5.85;;;2.40;;
64826;SDS011;51265;53.972;12.286;2023-03-17T03:36:18;8.00;;;2.30;;
64826;SDS011;51265;53.972;12.286;2023-03-17T03:38:44;5.18;;;2.60;;
64826;SDS011;51265;53.972;12.286;2023-03-17T03:41:11;7.05;;;2.30;;
64826;SDS011;51265;53.972;12.286;2023-03-17T03:43:37;5.20;;;2.03;;
64826;SDS011;51265;53.972;12.286;2023-03-17T03:46:04;7.55;;;2.33;;
64826;SDS011;51265;53.972;12.286;2023-03-17T03:48:30;5.10;;;2.58;;
64826;SDS011;51265;53.972;12.286;2023-03-17T03:50:56;6.03;;;2.45;;
64826;SDS011;51265;53.972;12.286;2023-03-17T03:53:24;7.32;;;2.67;;
64826;SDS011;51265;53.972;12.286;2023-03-17T03:55:51;7.80;;;2.65;;
64826;SDS011;51265;53.972;12.286;2023-03-17T03:58:17;6.38;;;2.72;;
64826;SDS011;51265;53.972;12.286;2023-03-17T04:00:44;5.05;;;2.70;;
64826;SDS011;51265;53.972;12.286;2023-03-17T04:03:10;4.35;;;2.22;;
64826;SDS011;51265;53.972;12.286;2023-03-17T04:05:36;5.13;;;2.42;;
64826;SDS011;51265;53.972;12.286;2023-03-17T04:08:02;7.07;;;3.40;;
64826;SDS011;51265;53.972;12.286;2023-03-17T04:10:28;5.95;;;2.95;;
64826;SDS011;51265;53.972;12.286;2023-03-17T04:12:55;9.20;;;2.60;;
64826;SDS011;51265;53.972;12.286;2023-03-17T04:15:21;6.32;;;2.97;;
64826;SDS011;51265;53.972;12.286;2023-03-17T04:17:47;7.82;;;3.13;;
64826;SDS011;51265;53.972;12.286;2023-03-17T04:20:14;13.68;;;2.83;;
64826;SDS011;51265;53.972;12.286;2023-03-17T04:22:41;8.65;;;2.85;;
64826;SDS011;51265;53.972;12.286;2023-03-17T04:25:08;5.20;;;2.70;;
64826;SDS011;51265;53.972;12.286;2023-03-17T04:27:36;6.80;;;2.90;;
64826;SDS011;51265;53.972;12.286;2023-03-17T04:30:02;7.32;;;2.42;;
64826;SDS011;51265;53.972;12.286;2023-03-17T04:32:29;8.32;;;2.88;;
64826;SDS011;51265;53.972;12.286;2023-03-17T04:34:56;10.45;;;2.90;;
64826;SDS011;51265;53.972;12.286;2023-03-17T04:37:23;6.90;;;2.60;;
64826;SDS011;51265;53.972;12.286;2023-03-17T04:39:49;7.40;;;2.60;;
64826;SDS011;51265;53.972;12.286;2023-03-17T04:42:16;5.50;;;2.60;;
64826;SDS011;51265;53.972;12.286;2023-03-17T04:44:42;4.82;;;2.50;;
64826;SDS011;51265;53.972;12.286;2023-03-17T04:47:08;5.18;;;2.50;;
64826;SDS011;51265;53.972;12.286;2023-03-17T04:49:35;8.32;;;2.83;;
64826;SDS011;51265;53.972;12.286;2023-03-17T04:52:01;6.20;;;2.70;;
64826;SDS011;51265;53.972;12.286;2023-03-17T04:54:27;7.90;;;3.17;;
64826;SDS011;51265;53.972;12.286;2023-03-17T04:56:53;6.25;;;2.78;;
64826;SDS011;51265;53.972;12.286;2023-03-17T04:59:19;4.60;;;2.20;;
64826;SDS011;51265;53.972;12.286;2023-03-17T05:01:46;6.80;;;2.83;;
64826;SDS011;51265;53.972;12.286;2023-03-17T05:04:12;8.63;;;2.83;;
64826;SDS011;51265;53.972;12.286;2023-03-17T05:06:39;7.53;;;2.83;;
64826;SDS011;51265;53.972;12.286;2023-03-17T05:09:05;10.65;;;2.97;;
64826;SDS011;51265;53.972;12.286;2023-03-17T05:11:31;6.75;;;3.10;;
64826;SDS011;51265;53.972;12.286;2023-03-17T05:13:58;6.43;;;3.05;;
64826;SDS011;51265;53.972;12.286;2023-03-17T05:16:24;6.65;;;2.63;;
64826;SDS011;51265;53.972;12.286;2023-03-17T05:18:51;5.25;;;2.90;;
64826;SDS011;51265;53.972;12.286;2023-03-17T05:21:17;6.13;;;3.13;;
64826;SDS011;51265;53.972;12.286;2023-03-17T05:23:43;5.65;;;3.00;;
64826;SDS011;51265;53.972;12.286;2023-03-17T05:26:09;6.35;;;2.80;;
64826;SDS011;51265;53.972;12.286;2023-03-17T05:28:36;7.88;;;3.20;;
64826;SDS011;51265;53.972;12.286;2023-03-17T05:31:02;6.63;;;3.03;;
64826;SDS011;51265;53.972;12.286;2023-03-17T05:33:28;5.35;;;2.60;;
64826;SDS011;51265;53.972;12.286;2023-03-17T05:35:54;10.95;;;3.30;;
64826;SDS011;51265;53.972;12.286;2023-03-17T05:38:22;6.43;;;3.13;;
64826;SDS011;51265;53.972;12.286;2023-03-17T05:40:49;7.40;;;3.10;;
64826;SDS011;51265;53.972;12.286;2023-03-17T05:43:16;6.20;;;3.42;;
64826;SDS011;51265;53.972;12.286;2023-03-17T05:45:42;7.80;;;2.70;;
64826;SDS011;51265;53.972;12.286;2023-03-17T05:48:08;10.23;;;3.25;;
64826;SDS011;51265;53.972;12.286;2023-03-17T05:50:37;6.95;;;3.53;;
64826;SDS011;51265;53.972;12.286;2023-03-17T05:53:03;6.32;;;2.88;;
64826;SDS011;51265;53.972;12.286;2023-03-17T05:55:29;7.40;;;3.33;;
64826;SDS011;51265;53.972;12.286;2023-03-17T05:57:55;6.95;;;3.53;;
64826;SDS011;51265;53.972;12.286;2023-03-17T06:00:23;7.78;;;3.55;;
64826;SDS011;51265;53.972;12.286;2023-03-17T06:02:49;6.60;;;3.50;;
64826;SDS011;51265;53.972;12.286;2023-03-17T06:05:16;6.78;;;3.22;;
64826;SDS011;51265;53.972;12.286;2023-03-17T06:07:42;7.20;;;3.05;;
64826;SDS011;51265;53.972;12.286;2023-03-17T06:10:08;4.70;;;2.90;;
64826;SDS011;51265;53.972;12.286;2023-03-17T06:12:36;6.47;;;3.28;;
64826;SDS011;51265;53.972;12.286;2023-03-17T06:15:03;8.95;;;2.90;;
64826;SDS011;51265;53.972;12.286;2023-03-17T06:17:30;6.22;;;2.90;;
64826;SDS011;51265;53.972;12.286;2023-03-17T06:19:56;10.32;;;3.05;;
64826;SDS011;51265;53.972;12.286;2023-03-17T06:22:22;7.68;;;3.50;;
64826;SDS011;51265;53.972;12.286;2023-03-17T06:24:48;8.30;;;3.22;;
64826;SDS011;51265;53.972;12.286;2023-03-17T06:27:15;8.07;;;3.45;;
64826;SDS011;51265;53.972;12.286;2023-03-17T06:29:41;6.88;;;3.33;;
64826;SDS011;51265;53.972;12.286;2023-03-17T06:32:07;7.85;;;3.65;;
64826;SDS011;51265;53.972;12.286;2023-03-17T06:34:34;10.32;;;3.25;;
64826;SDS011;51265;53.972;12.286;2023-03-17T06:37:00;5.70;;;3.05;;
64826;SDS011;51265;53.972;12.286;2023-03-17T06:39:26;7.72;;;2.75;;
64826;SDS011;51265;53.972;12.286;2023-03-17T06:41:52;7.30;;;3.33;;
64826;SDS011;51265;53.972;12.286;2023-03-17T06:44:19;5.68;;;3.20;;
64826;SDS011;51265;53.972;12.286;2023-03-17T06:46:45;5.60;;;3.22;;
64826;SDS011;51265;53.972;12.286;2023-03-17T06:49:11;7.13;;;3.33;;
64826;SDS011;51265;53.972;12.286;2023-03-17T06:51:38;8.13;;;3.25;;
64826;SDS011;51265;53.972;12.286;2023-03-17T06:54:05;9.20;;;3.10;;
64826;SDS011;51265;53.972;12.286;2023-03-17T06:56:32;7.20;;;3.33;;
64826;SDS011;51265;53.972;12.286;2023-03-17T06:58:58;6.43;;;3.13;;
64826;SDS011;51265;53.972;12.286;2023-03-17T07:01:25;6.45;;;3.90;;
64826;SDS011;51265;53.972;12.286;2023-03-17T07:03:52;8.43;;;3.50;;
64826;SDS011;51265;53.972;12.286;2023-03-17T07:06:18;8.10;;;3.47;;
64826;SDS011;51265;53.972;12.286;2023-03-17T07:08:44;5.30;;;3.15;;
64826;SDS011;51265;53.972;12.286;2023-03-17T07:11:11;9.55;;;3.45;;
64826;SDS011;51265;53.972;12.286;2023-03-17T07:13:37;7.50;;;3.35;;
64826;SDS011;51265;53.972;12.286;2023-03-17T07:16:04;8.38;;;3.42;;
64826;SDS011;51265;53.972;12.286;2023-03-17T07:18:31;5.72;;;3.50;;
64826;SDS011;51265;53.972;12.286;2023-03-17T07:20:59;8.20;;;3.22;;
64826;SDS011;51265;53.972;12.286;2023-03-17T07:23:27;7.28;;;3.20;;
64826;SDS011;51265;53.972;12.286;2023-03-17T07:25:54;6.63;;;3.20;;
64826;SDS011;51265;53.972;12.286;2023-03-17T07:28:20;9.32;;;3.40;;
64826;SDS011;51265;53.972;12.286;2023-03-17T07:30:47;6.63;;;3.15;;
64826;SDS011;51265;53.972;12.286;2023-03-17T07:33:14;7.05;;;3.38;;
64826;SDS011;51265;53.972;12.286;2023-03-17T07:35:42;7.95;;;3.20;;
64826;SDS011;51265;53.972;12.286;2023-03-17T07:38:09;6.13;;;3.30;;
64826;SDS011;51265;53.972;12.286;2023-03-17T07:40:36;7.10;;;3.17;;
64826;SDS011;51265;53.972;12.286;2023-03-17T07:43:03;8.52;;;3.78;;
64826;SDS011;51265;53.972;12.286;2023-03-17T07:45:30;10.00;;;4.18;;
64826;SDS011;51265;53.972;12.286;2023-03-17T07:47:56;7.95;;;3.47;;
64826;SDS011;51265;53.972;12.286;2023-03-17T07:50:22;7.30;;;3.30;;
64826;SDS011;51265;53.972;12.286;2023-03-17T07:52:49;12.10;;;3.65;;
64826;SDS011;51265;53.972;12.286;2023-03-17T07:55:15;6.85;;;3.03;;
64826;SDS011;51265;53.972;12.286;2023-03-17T07:57:41;7.28;;;2.92;;
64826;SDS011;51265;53.972;12.286;2023-03-17T08:00:08;5.35;;;2.92;;
64826;SDS011;51265;53.972;12.286;2023-03-17T08:02:38;5.28;;;3.33;;
64826;SDS011;51265;53.972;12.286;2023-03-17T08:05:06;7.00;;;3.10;;
64826;SDS011;51265;53.972;12.286;2023-03-17T08:07:33;6.13;;;3.33;;
64826;SDS011;51265;53.972;12.286;2023-03-17T08:10:00;5.65;;;3.03;;
64826;SDS011;51265;53.972;12.286;2023-03-17T08:12:28;5.68;;;3.25;;
64826;SDS011;51265;53.972;12.286;2023-03-17T08:14:54;6.20;;;2.97;;
64826;SDS011;51265;53.972;12.286;2023-03-17T08:17:20;6.80;;;3.45;;
64826;SDS011;51265;53.972;12.286;2023-03-17T08:19:55;7.75;;;3.45;;
64826;SDS011;51265;53.972;12.286;2023-03-17T08:22:22;6.97;;;3.60;;
64826;SDS011;51265;53.972;12.286;2023-03-17T08:24:49;10.52;;;3.30;;
64826;SDS011;51265;53.972;12.286;2023-03-17T08:27:16;7.75;;;3.45;;
64826;SDS011;51265;53.972;12.286;2023-03-17T08:29:44;7.88;;;3.35;;
64826;SDS011;51265;53.972;12.286;2023-03-17T08:32:10;6.13;;;3.10;;
64826;SDS011;51265;53.972;12.286;2023-03-17T08:34:36;8.77;;;3.05;;
64826;SDS011;51265;53.972;12.286;2023-03-17T08:37:03;8.27;;;2.90;;
64826;SDS011;51265;53.972;12.286;2023-03-17T08:39:29;5.68;;;3.30;;
64826;SDS011;51265;53.972;12.286;2023-03-17T08:41:56;5.72;;;3.25;;
64826;SDS011;51265;53.972;12.286;2023-03-17T08:44:22;4.70;;;2.70;;
64826;SDS011;51265;53.972;12.286;2023-03-17T08:46:49;7.07;;;3.03;;
64826;SDS011;51265;53.972;12.286;2023-03-17T08:49:30;7.88;;;3.17;;
64826;SDS011;51265;53.972;12.286;2023-03-17T08:51:59;7.68;;;3.15;;
64826;SDS011;51265;53.972;12.286;2023-03-17T08:54:27;8.27;;;2.90;;
64826;SDS011;51265;53.972;12.286;2023-03-17T08:56:53;7.53;;;2.97;;
64826;SDS011;51265;53.972;12.286;2023-03-17T08:59:19;5.82;;;2.97;;
64826;SDS011;51265;53.972;12.286;2023-03-17T09:01:46;6.00;;;2.83;;
64826;SDS011;51265;53.972;12.286;2023-03-17T09:04:12;4.82;;;2.78;;
64826;SDS011;51265;53.972;12.286;2023-03-17T09:06:38;5.65;;;3.13;;
64826;SDS011;51265;53.972;12.286;2023-03-17T09:09:04;6.38;;;2.75;;
64826;SDS011;51265;53.972;12.286;2023-03-17T09:11:31;6.00;;;3.17;;
64826;SDS011;51265;53.972;12.286;2023-03-17T09:13:58;5.38;;;2.70;;
64826;SDS011;51265;53.972;12.286;2023-03-17T09:16:25;9.45;;;3.33;;
64826;SDS011;51265;53.972;12.286;2023-03-17T09:18:53;7.05;;;2.92;;
64826;SDS011;51265;53.972;12.286;2023-03-17T09:21:19;7.55;;;2.70;;
64826;SDS011;51265;53.972;12.286;2023-03-17T09:23:46;5.28;;;2.65;;
64826;SDS011;51265;53.972;12.286;2023-03-17T09:26:12;7.00;;;2.80;;
64826;SDS011;51265;53.972;12.286;2023-03-17T09:28:39;8.23;;;2.75;;
64826;SDS011;51265;53.972;12.286;2023-03-17T09:31:05;9.32;;;2.97;;
64826;SDS011;51265;53.972;12.286;2023-03-17T09:33:36;8.75;;;3.08;;
64826;SDS011;51265;53.972;12.286;2023-03-17T09:36:04;7.50;;;2.97;;
64826;SDS011;51265;53.972;12.286;2023-03-17T09:38:30;7.32;;;3.03;;
64826;SDS011;51265;53.972;12.286;2023-03-17T09:43:53;6.13;;;2.83;;
64826;SDS011;51265;53.972;12.286;2023-03-17T09:46:45;5.35;;;3.53;;
64826;SDS011;51265;53.972;12.286;2023-03-17T09:49:18;6.13;;;3.45;;
64826;SDS011;51265;53.972;12.286;2023-03-17T09:51:48;6.88;;;2.90;;
64826;SDS011;51265;53.972;12.286;2023-03-17T09:56:49;5.20;;;2.60;;
64826;SDS011;51265;53.972;12.286;2023-03-17T09:59:32;7.30;;;3.28;;
64826;SDS011;51265;53.972;12.286;2023-03-17T10:02:02;6.40;;;3.13;;
64826;SDS011;51265;53.972;12.286;2023-03-17T10:04:37;4.88;;;3.30;;
64826;SDS011;51265;53.972;12.286;2023-03-17T10:07:03;5.60;;;2.88;;
64826;SDS011;51265;53.972;12.286;2023-03-17T10:09:51;7.03;;;3.08;;
64826;SDS011;51265;53.972;12.286;2023-03-17T10:12:37;6.32;;;2.90;;
64826;SDS011;51265;53.972;12.286;2023-03-17T10:15:26;5.38;;;2.80;;
64826;SDS011;51265;53.972;12.286;2023-03-17T10:18:06;5.10;;;3.08;;
64826;SDS011;51265;53.972;12.286;2023-03-17T10:20:34;5.88;;;2.97;;
64826;SDS011;51265;53.972;12.286;2023-03-17T10:23:10;7.13;;;2.63;;
64826;SDS011;51265;53.972;12.286;2023-03-17T10:25:40;4.82;;;2.85;;
64826;SDS011;51265;53.972;12.286;2023-03-17T10:28:10;7.38;;;3.22;;
64826;SDS011;51265;53.972;12.286;2023-03-17T10:30:48;7.72;;;3.17;;
64826;SDS011;51265;53.972;12.286;2023-03-17T10:33:15;4.97;;;2.70;;
64826;SDS011;51265;53.972;12.286;2023-03-17T10:35:41;9.43;;;3.42;;
64826;SDS011;51265;53.972;12.286;2023-03-17T10:38:14;3.90;;;2.45;;
64826;SDS011;51265;53.972;12.286;2023-03-17T10:40:43;5.53;;;2.95;;
64826;SDS011;51265;53.972;12.286;2023-03-17T10:43:16;5.60;;;2.67;;
64826;SDS011;51265;53.972;12.286;2023-03-17T10:46:00;6.78;;;2.85;;
64826;SDS011;51265;53.972;12.286;2023-03-17T10:51:04;5.00;;;2.75;;
64826;SDS011;51265;53.972;12.286;2023-03-17T10:53:36;6.47;;;3.10;;
64826;SDS011;51265;53.972;12.286;2023-03-17T10:56:08;5.57;;;2.88;;
64826;SDS011;51265;53.972;12.286;2023-03-17T10:58:46;6.15;;;2.67;;
64826;SDS011;51265;53.972;12.286;2023-03-17T11:04:01;5.07;;;2.67;;
64826;SDS011;51265;53.972;12.286;2023-03-17T11:06:37;6.80;;;3.28;;
64826;SDS011;51265;53.972;12.286;2023-03-17T11:09:08;5.20;;;2.70;;
64826;SDS011;51265;53.972;12.286;2023-03-17T11:11:45;5.95;;;2.92;;
64826;SDS011;51265;53.972;12.286;2023-03-17T11:14:16;4.88;;;2.50;;
64826;SDS011;51265;53.972;12.286;2023-03-17T11:16:53;5.90;;;3.10;;
64826;SDS011;51265;53.972;12.286;2023-03-17T11:19:41;5.82;;;3.45;;
64826;SDS011;51265;53.972;12.286;2023-03-17T11:22:19;7.63;;;3.30;;
64826;SDS011;51265;53.972;12.286;2023-03-17T11:25:04;7.50;;;2.95;;
64826;SDS011;51265;53.972;12.286;2023-03-17T11:27:49;8.15;;;3.50;;
64826;SDS011;51265;53.972;12.286;2023-03-17T11:30:33;7.30;;;3.40;;
64826;SDS011;51265;53.972;12.286;2023-03-17T11:38:25;4.40;;;2.88;;
64826;SDS011;51265;53.972;12.286;2023-03-17T11:43:39;5.93;;;3.28;;
64826;SDS011;51265;53.972;12.286;2023-03-17T11:54:38;5.70;;;3.08;;
64826;SDS011;51265;53.972;12.286;2023-03-17T11:57:11;4.25;;;2.97;;
64826;SDS011;51265;53.972;12.286;2023-03-17T12:07:58;6.72;;;3.13;;
64826;SDS011;51265;53.972;12.286;2023-03-17T12:10:34;6.32;;;2.65;;
64826;SDS011;51265;53.972;12.286;2023-03-17T12:13:13;5.07;;;2.70;;
64826;SDS011;51265;53.972;12.286;2023-03-17T12:16:01;4.30;;;2.38;;
64826;SDS011;51265;53.972;12.286;2023-03-17T12:18:33;7.18;;;2.78;;
64826;SDS011;51265;53.972;12.286;2023-03-17T12:21:14;6.05;;;2.97;;
64826;SDS011;51265;53.972;12.286;2023-03-17T12:23:48;5.95;;;3.10;;
64826;SDS011;51265;53.972;12.286;2023-03-17T12:26:22;4.20;;;2.88;;
64826;SDS011;51265;53.972;12.286;2023-03-17T12:29:05;6.00;;;2.70;;
64826;SDS011;51265;53.972;12.286;2023-03-17T12:32:11;6.63;;;3.08;;
64826;SDS011;51265;53.972;12.286;2023-03-17T12:42:35;6.28;;;2.92;;
64826;SDS011;51265;53.972;12.286;2023-03-17T12:48:17;5.63;;;2.70;;
64826;SDS011;51265;53.972;12.286;2023-03-17T12:53:33;7.38;;;3.38;;
64826;SDS011;51265;53.972;12.286;2023-03-17T12:56:48;5.15;;;2.58;;
64826;SDS011;51265;53.972;12.286;2023-03-17T12:59:03;5.00;;;2.58;;
64826;SDS011;51265;53.972;12.286;2023-03-17T13:01:38;6.85;;;2.63;;
64826;SDS011;51265;53.972;12.286;2023-03-17T13:04:17;6.00;;;2.97;;
64826;SDS011;51265;53.972;12.286;2023-03-17T13:07:01;6.97;;;2.80;;
64826;SDS011;51265;53.972;12.286;2023-03-17T13:09:45;6.25;;;3.05;;
64826;SDS011;51265;53.972;12.286;2023-03-17T13:12:54;6.20;;;2.97;;
64826;SDS011;51265;53.972;12.286;2023-03-17T13:20:50;4.28;;;2.53;;
64826;SDS011;51265;53.972;12.286;2023-03-17T13:23:34;4.47;;;2.75;;
64826;SDS011;51265;53.972;12.286;2023-03-17T13:26:13;7.45;;;2.88;;
64826;SDS011;51265;53.972;12.286;2023-03-17T13:28:44;6.50;;;3.17;;
64826;SDS011;51265;53.972;12.286;2023-03-17T13:34:13;6.70;;;2.38;;
64826;SDS011;51265;53.972;12.286;2023-03-17T13:53:48;4.05;;;2.92;;
64826;SDS011;51265;53.972;12.286;2023-03-17T13:59:11;7.80;;;3.00;;
64826;SDS011;51265;53.972;12.286;2023-03-17T14:01:53;8.30;;;3.10;;
64826;SDS011;51265;53.972;12.286;2023-03-17T14:04:27;5.43;;;3.17;;
64826;SDS011;51265;53.972;12.286;2023-03-17T14:06:57;8.38;;;3.28;;
64826;SDS011;51265;53.972;12.286;2023-03-17T14:09:32;6.05;;;3.30;;
64826;SDS011;51265;53.972;12.286;2023-03-17T14:17:50;5.00;;;3.10;;
64826;SDS011;51265;53.972;12.286;2023-03-17T14:20:23;6.00;;;2.85;;
64826;SDS011;51265;53.972;12.286;2023-03-17T14:23:05;6.60;;;3.55;;
64826;SDS011;51265;53.972;12.286;2023-03-17T14:25:32;6.35;;;3.15;;
64826;SDS011;51265;53.972;12.286;2023-03-17T14:28:04;5.82;;;2.97;;
64826;SDS011;51265;53.972;12.286;2023-03-17T14:30:33;5.45;;;2.70;;
64826;SDS011;51265;53.972;12.286;2023-03-17T14:33:02;7.18;;;3.13;;
64826;SDS011;51265;53.972;12.286;2023-03-17T14:35:50;3.85;;;2.50;;
64826;SDS011;51265;53.972;12.286;2023-03-17T14:38:20;5.90;;;3.03;;
64826;SDS011;51265;53.972;12.286;2023-03-17T14:40:58;7.75;;;2.65;;
64826;SDS011;51265;53.972;12.286;2023-03-17T14:43:26;3.72;;;2.50;;
64826;SDS011;51265;53.972;12.286;2023-03-17T14:45:57;8.43;;;2.95;;
64826;SDS011;51265;53.972;12.286;2023-03-17T14:48:30;4.13;;;2.72;;
64826;SDS011;51265;53.972;12.286;2023-03-17T14:51:41;8.68;;;2.58;;
64826;SDS011;51265;53.972;12.286;2023-03-17T14:53:58;5.07;;;2.80;;
64826;SDS011;51265;53.972;12.286;2023-03-17T14:56:30;4.80;;;2.78;;
64826;SDS011;51265;53.972;12.286;2023-03-17T14:59:43;5.35;;;2.80;;
64826;SDS011;51265;53.972;12.286;2023-03-17T15:02:01;8.98;;;3.20;;
64826;SDS011;51265;53.972;12.286;2023-03-17T15:04:48;4.85;;;2.53;;
64826;SDS011;51265;53.972;12.286;2023-03-17T15:07:28;10.48;;;3.50;;
64826;SDS011;51265;53.972;12.286;2023-03-17T15:10:12;4.05;;;2.90;;
64826;SDS011;51265;53.972;12.286;2023-03-17T15:12:41;5.28;;;3.10;;
64826;SDS011;51265;53.972;12.286;2023-03-17T15:15:15;5.25;;;3.00;;
64826;SDS011;51265;53.972;12.286;2023-03-17T15:17:45;7.25;;;2.75;;
64826;SDS011;51265;53.972;12.286;2023-03-17T15:20:15;5.80;;;2.95;;
64826;SDS011;51265;53.972;12.286;2023-03-17T15:22:46;7.07;;;2.90;;
64826;SDS011;51265;53.972;12.286;2023-03-17T15:25:33;5.78;;;2.60;;
64826;SDS011;51265;53.972;12.286;2023-03-17T15:28:09;7.13;;;3.15;;
64826;SDS011;51265;53.972;12.286;2023-03-17T15:30:41;7.50;;;2.97;;
64826;SDS011;51265;53.972;12.286;2023-03-17T15:35:52;6.25;;;3.10;;
64826;SDS011;51265;53.972;12.286;2023-03-17T15:38:21;5.20;;;2.40;;
64826;SDS011;51265;53.972;12.286;2023-03-17T15:40:48;5.22;;;2.58;;
64826;SDS011;51265;53.972;12.286;2023-03-17T15:43:15;5.80;;;2.80;;
64826;SDS011;51265;53.972;12.286;2023-03-17T15:45:42;6.30;;;2.80;;
64826;SDS011;51265;53.972;12.286;2023-03-17T15:48:20;6.03;;;2.78;;
64826;SDS011;51265;53.972;12.286;2023-03-17T15:50:51;4.95;;;2.50;;
64826;SDS011;51265;53.972;12.286;2023-03-17T15:53:18;7.30;;;3.00;;
64826;SDS011;51265;53.972;12.286;2023-03-17T15:55:44;4.22;;;2.50;;
64826;SDS011;51265;53.972;12.286;2023-03-17T15:58:12;5.38;;;2.60;;
64826;SDS011;51265;53.972;12.286;2023-03-17T16:00:39;5.63;;;2.67;;
64826;SDS011;51265;53.972;12.286;2023-03-17T16:03:21;5.88;;;2.47;;
64826;SDS011;51265;53.972;12.286;2023-03-17T16:05:56;4.53;;;3.08;;
64826;SDS011;51265;53.972;12.286;2023-03-17T16:08:23;5.00;;;2.13;;
64826;SDS011;51265;53.972;12.286;2023-03-17T16:10:50;4.00;;;2.58;;
64826;SDS011;51265;53.972;12.286;2023-03-17T16:13:17;5.15;;;2.70;;
64826;SDS011;51265;53.972;12.286;2023-03-17T16:15:46;5.85;;;2.67;;
64826;SDS011;51265;53.972;12.286;2023-03-17T16:18:18;6.57;;;2.70;;
64826;SDS011;51265;53.972;12.286;2023-03-17T16:20:52;5.55;;;2.00;;
64826;SDS011;51265;53.972;12.286;2023-03-17T16:23:20;4.25;;;2.70;;
64826;SDS011;51265;53.972;12.286;2023-03-17T16:25:48;4.40;;;2.58;;